createdAt,value
2019-03-28T00:00:01.050Z,0.22
2019-03-28T00:05:01.092Z,0.13
2019-03-28T00:10:01.722Z,0.40
2019-03-28T00:15:01.390Z,0.48
2019-03-28T00:20:01.033Z,0.23
2019-03-28T00:25:01.046Z,0.52
2019-03-28T00:30:01.049Z,0.54
2019-03-28T00:35:01.064Z,0.72
2019-03-28T00:40:01.032Z,0.00
2019-03-28T00:45:01.369Z,0.00
2019-03-28T00:50:01.031Z,0.00
2019-03-28T00:55:01.039Z,0.07
2019-03-28T01:00:01.047Z,0.35
2019-03-28T01:05:01.069Z,0.22
2019-03-28T01:10:01.530Z,0.09
2019-03-28T01:15:01.328Z,0.01
2019-03-28T01:20:01.090Z,0.31
2019-03-28T01:25:01.675Z,0.26
2019-03-28T01:30:01.049Z,0.75
2019-03-28T01:35:01.345Z,0.38
2019-03-28T01:40:01.053Z,0.19
2019-03-28T01:45:01.048Z,0.61
2019-03-28T01:50:01.075Z,0.34
2019-03-28T01:55:01.080Z,0.07
2019-03-28T02:00:01.020Z,0.03
2019-03-28T02:05:01.032Z,0.06
2019-03-28T02:10:01.451Z,0.16
2019-03-28T02:15:01.516Z,0.09
2019-03-28T02:20:01.080Z,0.45
2019-03-28T02:25:01.051Z,0.34
2019-03-28T02:30:01.039Z,0.06
2019-03-28T03:05:01.394Z,0.13
2019-03-28T03:10:01.045Z,0.32
2019-03-28T03:15:01.461Z,0.00
2019-03-28T03:20:01.036Z,0.12
2019-03-28T03:25:01.084Z,0.00
2019-03-28T03:30:01.068Z,0.00
2019-03-28T03:35:02.146Z,0.06
2019-03-28T03:40:01.035Z,0.00
2019-03-28T03:45:01.337Z,0.00
2019-03-28T03:50:01.063Z,0.14
2019-03-28T03:55:01.061Z,0.00
2019-03-28T04:00:01.054Z,0.02
2019-03-28T04:05:01.051Z,0.40
2019-03-28T04:10:01.088Z,0.76
2019-03-28T04:15:01.034Z,0.56
2019-03-28T04:20:01.078Z,0.14
2019-03-28T04:25:01.031Z,0.03
2019-03-28T04:30:01.044Z,0.40
2019-03-28T04:35:01.060Z,0.21
2019-03-28T04:40:01.039Z,0.00
2019-03-28T04:45:01.057Z,0.08
2019-03-28T04:50:01.515Z,0.00
2019-03-28T04:55:01.072Z,0.00
2019-03-28T05:00:01.045Z,0.05
2019-03-28T05:05:01.054Z,0.70
2019-03-28T05:10:01.062Z,0.00
2019-03-28T05:15:01.082Z,0.12
2019-03-28T05:20:01.490Z,0.39
2019-03-28T05:25:01.101Z,0.00
2019-03-28T05:30:01.099Z,0.00
2019-03-28T05:35:01.070Z,0.04
2019-03-28T05:40:01.047Z,0.00
2019-03-28T05:45:01.087Z,0.00
2019-03-28T05:50:01.087Z,0.00
2019-03-28T05:55:01.525Z,0.08
2019-03-28T06:00:01.055Z,0.18
2019-03-28T06:05:01.105Z,0.25
2019-03-28T06:10:01.405Z,0.11
2019-03-28T06:15:01.063Z,0.16
2019-03-28T06:20:01.080Z,0.21
2019-03-28T06:25:01.062Z,0.00
2019-03-28T06:30:02.237Z,0.33
2019-03-28T06:35:01.071Z,0.00
2019-03-28T06:40:01.071Z,0.00
2019-03-28T06:45:03.686Z,0.00
2019-03-28T06:50:01.090Z,0.00
2019-03-28T06:55:01.449Z,0.07
2019-03-28T07:00:01.110Z,0.16
2019-03-28T07:05:02.753Z,0.52
2019-03-28T07:10:02.623Z,0.99
2019-03-28T07:15:01.098Z,0.71
2019-03-28T07:20:01.095Z,1.04
2019-03-28T07:25:01.066Z,0.49
2019-03-28T07:30:02.097Z,0.01
2019-03-28T07:35:01.037Z,0.08
2019-03-28T07:40:01.218Z,1.74
2019-03-28T07:45:01.081Z,1.19
2019-03-28T07:50:01.127Z,0.30
2019-03-28T07:55:01.036Z,0.31
2019-03-28T08:00:04.633Z,0.29
2019-03-28T08:05:01.809Z,1.20
2019-03-28T08:10:02.030Z,1.38
2019-03-28T08:15:01.043Z,1.25
2019-03-28T08:20:01.092Z,0.75
2019-03-28T08:25:01.061Z,0.28
2019-03-28T08:30:01.050Z,0.00
2019-03-28T08:35:01.083Z,0.00
2019-03-28T08:40:01.042Z,0.08
2019-03-28T08:45:01.157Z,0.59
2019-03-28T08:50:01.038Z,0.78
2019-03-28T08:55:01.205Z,0.94
2019-03-28T09:05:01.220Z,0.71
2019-03-28T09:10:01.034Z,0.94
2019-03-28T09:20:01.220Z,1.52
2019-03-28T09:25:01.061Z,0.96
2019-03-28T09:30:01.065Z,1.16
2019-03-28T09:35:01.069Z,1.85
2019-03-28T09:40:01.428Z,1.80
2019-03-28T09:45:01.034Z,1.96
2019-03-28T09:50:01.075Z,1.04
2019-03-28T09:55:01.526Z,1.74
2019-03-28T10:00:01.031Z,1.21
2019-03-28T10:05:01.235Z,1.07
2019-03-28T10:10:01.948Z,1.45
2019-03-28T10:15:01.242Z,0.67
2019-03-28T10:20:01.057Z,0.93
2019-03-28T10:25:01.259Z,1.48
2019-03-28T10:30:10.060Z,2.12
2019-03-28T10:35:01.105Z,2.53
2019-03-28T10:40:01.093Z,1.80
2019-03-28T10:45:01.070Z,1.86
2019-03-28T10:50:03.979Z,1.69
2019-03-28T10:55:01.090Z,1.50
2019-03-28T11:00:01.161Z,1.09
2019-03-28T11:05:01.313Z,1.07
2019-03-28T11:10:01.346Z,0.80
2019-03-28T11:15:01.068Z,1.56
2019-03-28T11:20:01.090Z,1.11
2019-03-28T11:25:01.363Z,1.96
2019-03-28T11:30:01.082Z,1.21
2019-03-28T11:35:01.350Z,1.02
2019-03-28T11:40:01.151Z,1.42
2019-03-28T11:45:01.111Z,0.91
2019-03-28T11:50:01.115Z,0.96
2019-03-28T11:55:01.110Z,2.00
2019-03-28T12:00:01.510Z,1.45
2019-03-28T12:05:01.150Z,1.51
2019-03-28T12:10:01.050Z,2.11
2019-03-28T12:15:01.401Z,2.52
2019-03-28T12:20:01.080Z,1.81
2019-03-28T12:25:01.459Z,3.15
2019-03-28T12:30:01.113Z,2.82
2019-03-28T12:35:01.118Z,0.74
2019-03-28T12:40:01.082Z,1.61
2019-03-28T12:45:01.073Z,2.51
2019-03-28T12:50:01.079Z,1.66
2019-03-28T12:55:01.390Z,1.51
2019-03-28T13:00:01.163Z,1.78
2019-03-28T13:05:01.105Z,2.20
2019-03-28T13:10:01.904Z,0.92
2019-03-28T13:15:01.140Z,2.63
2019-03-28T13:20:01.123Z,0.96
2019-03-28T13:25:01.165Z,1.25
2019-03-28T13:30:01.804Z,1.68
2019-03-28T13:35:01.478Z,2.06
2019-03-28T13:40:01.143Z,2.81
2019-03-28T13:45:01.126Z,2.86
2019-03-28T13:50:01.108Z,2.34
2019-03-28T13:55:01.555Z,2.19
2019-03-28T14:00:01.863Z,2.23
2019-03-28T14:05:01.080Z,2.67
2019-03-28T14:10:01.439Z,2.48
2019-03-28T14:15:01.115Z,1.78
2019-03-28T14:20:01.078Z,0.71
2019-03-28T14:25:01.072Z,1.42
2019-03-28T14:30:01.525Z,1.50
2019-03-28T14:35:01.597Z,1.26
2019-03-28T14:40:01.591Z,0.98
2019-03-28T14:45:01.137Z,1.13
2019-03-28T14:50:01.131Z,1.74
2019-03-28T14:55:01.471Z,2.31
2019-03-28T15:00:01.133Z,2.98
2019-03-28T15:05:01.535Z,2.26
2019-03-28T15:10:01.961Z,0.98
2019-03-28T15:15:01.411Z,1.95
2019-03-28T15:20:01.058Z,1.89
2019-03-28T15:25:01.062Z,2.52
2019-03-28T15:30:01.104Z,2.16
2019-03-28T15:35:01.105Z,1.99
2019-03-28T15:40:01.071Z,1.28
2019-03-28T21:00:02.491Z,0.64
2019-03-28T21:05:01.302Z,0.44
2019-03-28T21:10:01.136Z,0.66
2019-03-28T21:15:01.112Z,0.48
2019-03-28T21:20:01.246Z,0.52
2019-03-28T21:25:01.175Z,0.65
2019-03-28T21:30:01.093Z,0.11
2019-03-28T21:35:01.136Z,0.35
2019-03-28T21:40:01.606Z,0.60
2019-03-28T21:45:01.129Z,0.77
2019-03-28T21:50:01.673Z,0.86
2019-03-28T21:55:01.119Z,0.73
2019-03-28T22:00:01.270Z,1.24
2019-03-28T22:05:01.496Z,0.74
2019-03-28T22:10:01.308Z,0.36
2019-03-28T22:15:01.043Z,0.14
2019-03-28T22:20:01.347Z,1.08
2019-03-28T22:25:01.069Z,0.69
2019-03-28T22:30:01.361Z,0.67
2019-03-28T22:35:01.051Z,0.78
2019-03-28T22:40:01.082Z,0.02
2019-03-28T22:45:01.345Z,0.42
2019-03-28T22:50:01.030Z,0.85
2019-03-28T22:55:01.133Z,0.69
2019-03-28T23:00:04.114Z,0.94
2019-03-28T23:05:01.150Z,0.64
2019-03-28T23:10:01.112Z,1.01
2019-03-28T23:15:01.367Z,1.27
2019-03-28T23:20:01.089Z,0.73
2019-03-28T23:25:01.343Z,0.71
2019-03-28T23:30:01.052Z,1.04
2019-03-28T23:35:01.070Z,0.64
2019-03-28T23:40:01.376Z,0.46
2019-03-28T23:45:01.036Z,0.12
2019-03-28T23:50:01.102Z,0.16
2019-03-28T23:55:01.066Z,0.70
